Time;durP1;ratioP1;P1;durP2;ratioP2;P2;SDS_P1;SDS_P2;PMS_P1;PMS_P2;Temp;Humidity;BMP_temperature;BMP_pressure;BME280_temperature;BME280_humidity;BME280_pressure;Samples;Min_cycle;Max_cycle;Signal;HPM_P1;HPM_P2
2021/01/08 00:01:28;;;;;;;;;;;;;;;18.60;70.10;100852.38;5036406;28;1278;-66
2021/01/08 00:03:54;;;;;;;;;;;;;;;18.57;70.07;100858.00;5035958;28;1427;-59
2021/01/08 00:06:19;;;;;;;;;;;;;;;18.49;70.04;100855.97;5035472;28;1525;-66
2021/01/08 00:08:45;;;;;;;;;;;;;;;18.48;70.42;100853.41;5035748;28;1445;-65
2021/01/08 00:11:10;;;;;;;;;;;;;;;18.48;70.29;100864.13;5029329;28;1415;-57
2021/01/08 00:13:35;;;;;;;;;;;;;;;18.47;69.91;100857.91;5028768;28;1585;-57
2021/01/08 00:16:01;;;;;;;;;;;;;;;18.47;69.90;100863.28;5024657;28;1918;-66
2021/01/08 00:18:26;;;;;;;;;;;;;;;18.46;70.17;100860.72;5024476;28;1478;-66
2021/01/08 00:20:52;;;;;;;;;;;;;;;18.43;70.06;100861.84;5028061;28;1575;-58
2021/01/08 00:23:17;;;;;;;;;;;;;;;18.47;70.05;100883.84;5020904;28;1486;-66
2021/01/08 00:25:48;;;;;;;;;;;;;;;18.44;69.66;100882.28;5028502;28;1455;-57
2021/01/08 00:28:14;;;;;;;;;;;;;;;18.41;69.52;100869.16;5023843;28;1447;-58
2021/01/08 00:30:39;;;;;;;;;;;;;;;18.43;69.60;100877.06;5026614;28;1574;-58
2021/01/08 00:33:05;;;;;;;;;;;;;;;18.37;69.46;100872.22;5021188;28;1427;-65
2021/01/08 00:35:30;;;;;;;;;;;;;;;18.37;69.09;100878.41;5025703;28;1951;-57
2021/01/08 00:37:55;;;;;;;;;;;;;;;18.36;69.08;100876.72;5025445;28;1450;-66
2021/01/08 00:40:21;;;;;;;;;;;;;;;18.36;69.53;100881.22;5026048;28;1585;-65
2021/01/08 00:42:46;;;;;;;;;;;;;;;18.32;69.12;100866.41;5023193;28;1446;-57
2021/01/08 00:45:11;;;;;;;;;;;;;;;18.34;68.94;100889.38;5028838;28;1545;-66
2021/01/08 00:47:37;;;;;;;;;;;;;;;18.35;69.01;100879.53;5022225;28;1470;-57
2021/01/08 00:50:02;;;;;;;;;;;;;;;18.31;69.08;100859.34;5023989;28;1495;-66
2021/01/08 00:52:27;;;;;;;;;;;;;;;18.32;69.12;100853.84;5020629;28;1351;-66
2021/01/08 00:54:53;;;;;;;;;;;;;;;18.32;68.72;100869.06;5022663;28;1918;-57
2021/01/08 00:57:18;;;;;;;;;;;;;;;18.29;68.45;100876.38;5014955;28;1586;-66
2021/01/08 00:59:44;;;;;;;;;;;;;;;18.31;68.93;100865.56;5014929;28;1586;-57
2021/01/08 01:02:09;;;;;;;;;;;;;;;18.28;68.76;100853.28;5020687;28;1530;-57
2021/01/08 01:04:34;;;;;;;;;;;;;;;18.26;68.34;100860.59;5022907;28;1592;-66
2021/01/08 01:07:00;;;;;;;;;;;;;;;18.28;68.54;100852.41;5028356;28;1597;-66
2021/01/08 01:09:25;;;;;;;;;;;;;;;18.24;68.40;100846.50;5021278;28;1419;-57
2021/01/08 01:11:50;;;;;;;;;;;;;;;18.25;68.32;100848.16;5025356;28;1628;-66
2021/01/08 01:14:17;;;;;;;;;;;;;;;18.24;68.17;100861.69;5025155;28;1556;-57
2021/01/08 01:16:43;;;;;;;;;;;;;;;18.23;68.13;100865.34;5023098;28;1910;-66
2021/01/08 01:19:08;;;;;;;;;;;;;;;18.21;68.14;100852.09;5024667;28;1478;-65
2021/01/08 01:21:33;;;;;;;;;;;;;;;18.21;68.27;100840.53;5027325;28;1521;-66
2021/01/08 01:23:59;;;;;;;;;;;;;;;18.21;67.84;100848.56;5024683;28;1498;-57
2021/01/08 01:26:24;;;;;;;;;;;;;;;18.22;68.21;100847.56;5023582;28;1568;-66
2021/01/08 01:28:49;;;;;;;;;;;;;;;18.21;67.90;100822.63;5018559;28;1454;-66
2021/01/08 01:31:15;;;;;;;;;;;;;;;18.19;68.26;100840.66;5019196;28;1588;-57
2021/01/08 01:33:40;;;;;;;;;;;;;;;18.21;67.65;100845.88;5024826;28;1574;-65
2021/01/08 01:36:07;;;;;;;;;;;;;;;18.20;67.67;100831.63;5007502;28;1894;-57
2021/01/08 01:38:33;;;;;;;;;;;;;;;18.20;67.66;100837.00;5022313;28;1553;-57
2021/01/08 01:40:59;;;;;;;;;;;;;;;18.18;68.13;100822.03;5027211;28;1454;-66
2021/01/08 01:43:24;;;;;;;;;;;;;;;18.19;67.81;100840.66;5020214;28;1605;-66
2021/01/08 01:45:50;;;;;;;;;;;;;;;18.16;67.77;100824.84;5024709;28;1518;-57
2021/01/08 01:48:15;;;;;;;;;;;;;;;18.17;67.67;100815.00;5020936;28;1585;-65
2021/01/08 01:50:40;;;;;;;;;;;;;;;18.16;67.87;100827.50;5022482;28;1644;-57
2021/01/08 01:53:06;;;;;;;;;;;;;;;18.12;68.03;100826.06;5027802;28;1597;-57
2021/01/08 01:55:32;;;;;;;;;;;;;;;18.15;67.70;100825.84;5021306;28;1894;-66
2021/01/08 01:57:58;;;;;;;;;;;;;;;18.13;67.75;100813.56;5024995;28;1502;-57
2021/01/08 02:00:23;;;;;;;;;;;;;;;18.13;67.63;100822.44;5022131;28;1521;-57
2021/01/08 02:03:00;;;;;;;;;;;;;;;18.13;67.41;100826.94;5026321;28;1640;-57
2021/01/08 02:05:28;;;;;;;;;;;;;;;18.11;67.34;100827.06;5020524;28;1589;-66
2021/01/08 02:07:58;;;;;;;;;;;;;;;18.11;67.34;100824.41;5024111;28;1514;-66
2021/01/08 02:10:25;;;;;;;;;;;;;;;18.12;67.26;100823.41;5024297;28;1625;-57
2021/01/08 02:12:52;;;;;;;;;;;;;;;18.08;68.07;100820.16;5013869;28;1499;-66
2021/01/08 02:15:17;;;;;;;;;;;;;;;18.10;67.75;100809.31;5013699;28;1918;-66
2021/01/08 02:17:43;;;;;;;;;;;;;;;18.08;67.54;100813.94;5013999;28;1582;-65
2021/01/08 02:20:09;;;;;;;;;;;;;;;18.06;67.63;100822.13;5013526;28;1498;-57
2021/01/08 02:22:47;;;;;;;;;;;;;;;18.06;67.53;100827.47;5014190;28;1491;-58
2021/01/08 02:25:19;;;;;;;;;;;;;;;18.07;67.46;100834.50;5013535;28;1482;-57
2021/01/08 02:28:05;;;;;;;;;;;;;;;18.07;67.76;100828.31;5013482;28;1455;-57
2021/01/08 02:30:32;;;;;;;;;;;;;;;18.08;67.12;100851.41;5007219;28;2025;-57
2021/01/08 02:32:58;;;;;;;;;;;;;;;18.05;67.82;100838.28;5027242;28;1577;-64
2021/01/08 02:35:23;;;;;;;;;;;;;;;18.01;67.29;100842.19;5019388;28;1894;-66
2021/01/08 02:37:48;;;;;;;;;;;;;;;18.04;67.28;100839.25;5024992;28;1665;-66
2021/01/08 02:40:15;;;;;;;;;;;;;;;18.01;67.86;100842.19;5022829;28;1582;-57
2021/01/08 02:42:45;;;;;;;;;;;;;;;18.03;67.12;100837.56;5021915;28;1661;-66
2021/01/08 02:45:11;;;;;;;;;;;;;;;18.01;66.84;100820.78;5027405;28;1621;-58
2021/01/08 02:47:36;;;;;;;;;;;;;;;18.03;67.06;100817.00;5025904;28;1736;-57
2021/01/08 02:50:02;;;;;;;;;;;;;;;18.06;67.32;100815.88;5020135;28;1724;-66
2021/01/08 02:52:28;;;;;;;;;;;;;;;18.04;66.98;100810.66;5025041;28;1740;-66
2021/01/08 02:54:54;;;;;;;;;;;;;;;18.01;66.57;100802.06;5020417;28;1881;-66
2021/01/08 02:57:20;;;;;;;;;;;;;;;18.01;66.63;100815.44;5027480;28;1499;-57
2021/01/08 02:59:45;;;;;;;;;;;;;;;18.00;66.76;100806.53;5026063;28;1724;-57
2021/01/08 03:02:11;;;;;;;;;;;;;;;17.99;66.56;100801.34;5070342;23;2080;-48
2021/01/08 03:04:36;;;;;;;;;;;;;;;17.98;66.51;100804.97;5090534;28;2075;-47
2021/01/08 03:07:02;;;;;;;;;;;;;;;17.98;66.55;100804.97;5095470;28;1947;-49
2021/01/08 03:09:27;;;;;;;;;;;;;;;17.97;66.78;100803.28;5095398;28;1626;-48
2021/01/08 03:11:58;;;;;;;;;;;;;;;18.00;66.87;100803.03;5086842;22;3621;-66
2021/01/08 03:14:24;;;;;;;;;;;;;;;17.95;66.65;100797.22;5064528;28;1673;-57
2021/01/08 03:16:49;;;;;;;;;;;;;;;17.96;67.42;100804.25;5061555;28;1992;-66
2021/01/08 03:19:15;;;;;;;;;;;;;;;17.97;66.81;100806.81;5070494;28;1708;-66
2021/01/08 03:21:40;;;;;;;;;;;;;;;17.92;67.17;100798.31;5064255;28;1632;-57
2021/01/08 03:24:06;;;;;;;;;;;;;;;17.95;66.91;100798.06;5065789;28;1632;-66
2021/01/08 03:26:31;;;;;;;;;;;;;;;17.93;67.04;100794.66;5066376;28;1628;-66
2021/01/08 03:28:57;;;;;;;;;;;;;;;17.95;67.02;100791.88;5065251;28;1613;-57
2021/01/08 03:31:22;;;;;;;;;;;;;;;17.98;67.97;100791.59;5061785;28;1596;-58
2021/01/08 03:33:48;;;;;;;;;;;;;;;17.98;67.94;100792.44;5066520;28;1747;-58
2021/01/08 03:36:13;;;;;;;;;;;;;;;18.00;67.88;100792.31;5062191;28;1972;-57
2021/01/08 03:38:38;;;;;;;;;;;;;;;17.99;67.69;100793.31;5069912;28;1625;-64
2021/01/08 03:41:04;;;;;;;;;;;;;;;18.00;68.05;100800.34;5063919;28;1668;-63
2021/01/08 03:43:29;;;;;;;;;;;;;;;17.99;68.50;100812.88;5067507;28;1618;-63
2021/01/08 03:45:54;;;;;;;;;;;;;;;17.98;68.35;100813.00;5063587;28;1553;-64
2021/01/08 03:48:20;;;;;;;;;;;;;;;17.96;68.39;100804.25;5061348;28;1600;-64
2021/01/08 03:50:45;;;;;;;;;;;;;;;17.94;68.20;100815.09;5064159;28;1718;-64
2021/01/08 03:53:11;;;;;;;;;;;;;;;17.92;68.53;100814.34;5066149;28;1708;-63
2021/01/08 03:55:36;;;;;;;;;;;;;;;17.92;67.57;100800.13;5064477;28;1984;-63
2021/01/08 03:58:01;;;;;;;;;;;;;;;17.93;68.33;100817.91;5064841;28;1612;-57
2021/01/08 04:00:27;;;;;;;;;;;;;;;17.91;67.57;100812.69;5062206;28;1609;-64
2021/01/08 04:02:52;;;;;;;;;;;;;;;17.94;67.18;100800.84;5076742;28;1735;-64
2021/01/08 04:05:17;;;;;;;;;;;;;;;17.91;68.15;100795.78;5070350;28;1480;-57
2021/01/08 04:07:43;;;;;;;;;;;;;;;17.91;68.21;100785.09;5076322;28;793;-57
2021/01/08 04:10:08;;;;;;;;;;;;;;;17.92;67.80;100790.28;5070753;28;1308;-64
2021/01/08 04:12:33;;;;;;;;;;;;;;;17.92;67.83;100786.75;5076052;28;1132;-64
2021/01/08 04:14:59;;;;;;;;;;;;;;;17.88;67.30;100781.66;5080682;28;1922;-57
2021/01/08 04:17:24;;;;;;;;;;;;;;;17.88;68.42;100783.50;5085285;28;1631;-62
2021/01/08 04:19:50;;;;;;;;;;;;;;;17.77;67.27;100779.00;5085837;28;1690;-66
2021/01/08 04:22:15;;;;;;;;;;;;;;;17.73;68.05;100769.53;5084801;28;1592;-57
2021/01/08 04:24:41;;;;;;;;;;;;;;;17.67;67.37;100765.53;5080803;28;1718;-58
2021/01/08 04:27:06;;;;;;;;;;;;;;;17.70;68.96;100761.75;5081987;28;1699;-65
2021/01/08 04:29:31;;;;;;;;;;;;;;;17.73;68.38;100764.19;5081436;28;1659;-56
2021/01/08 04:31:57;;;;;;;;;;;;;;;17.79;68.23;100766.34;5075465;28;1458;-64
2021/01/08 04:34:22;;;;;;;;;;;;;;;17.82;68.19;100776.78;5075928;28;1493;-56
2021/01/08 04:36:48;;;;;;;;;;;;;;;17.87;68.77;100779.13;5075604;28;1885;-64
2021/01/08 04:39:13;;;;;;;;;;;;;;;17.90;68.43;100792.25;5075912;28;803;-63
2021/01/08 04:41:39;;;;;;;;;;;;;;;17.86;68.84;100783.59;5075558;28;733;-56
2021/01/08 04:44:05;;;;;;;;;;;;;;;17.88;68.68;100787.00;5075572;28;753;-63
2021/01/08 04:46:32;;;;;;;;;;;;;;;17.86;68.69;100780.94;5075471;28;1471;-57
2021/01/08 04:49:07;;;;;;;;;;;;;;;17.86;68.03;100783.59;5075436;28;951;-56
2021/01/08 04:51:35;;;;;;;;;;;;;;;17.83;68.83;100762.47;5083566;28;1750;-64
2021/01/08 04:54:01;;;;;;;;;;;;;;;17.87;68.36;100766.59;5083238;28;1675;-57
2021/01/08 04:56:28;;;;;;;;;;;;;;;17.86;68.15;100762.22;5086506;28;1898;-56
2021/01/08 04:58:53;;;;;;;;;;;;;;;17.86;68.39;100764.88;5087061;28;1694;-64
2021/01/08 05:01:19;;;;;;;;;;;;;;;17.84;68.79;100763.31;5078928;28;1543;-56
2021/01/08 05:03:44;;;;;;;;;;;;;;;17.83;68.88;100751.78;5084927;28;1834;-64
2021/01/08 05:06:10;;;;;;;;;;;;;;;17.81;68.52;100744.84;5089114;28;1718;-64
2021/01/08 05:08:35;;;;;;;;;;;;;;;17.85;68.91;100749.81;5080487;28;1698;-64
2021/01/08 05:11:19;;;;;;;;;;;;;;;17.80;68.25;100748.47;5082106;28;1612;-63
2021/01/08 05:13:49;;;;;;;;;;;;;;;17.81;68.73;100731.47;5082443;28;1557;-57
2021/01/08 05:16:15;;;;;;;;;;;;;;;17.82;68.43;100744.69;5089655;28;1913;-64
2021/01/08 05:18:41;;;;;;;;;;;;;;;17.82;68.12;100755.38;5082582;28;1593;-60
2021/01/08 05:21:06;;;;;;;;;;;;;;;17.81;68.58;100743.00;5082227;28;1643;-58
2021/01/08 05:23:34;;;;;;;;;;;;;;;17.81;68.28;100753.69;5080717;28;1592;-57
2021/01/08 05:26:01;;;;;;;;;;;;;;;17.79;68.46;100782.41;5087574;28;1722;-64
2021/01/08 05:28:28;;;;;;;;;;;;;;;17.78;68.80;100751.28;5087378;28;1655;-58
2021/01/08 05:30:56;;;;;;;;;;;;;;;17.76;67.91;100758.56;5083959;28;1580;-64
2021/01/08 05:33:22;;;;;;;;;;;;;;;17.78;68.30;100758.44;5081950;28;1667;-56
2021/01/08 05:35:48;;;;;;;;;;;;;;;17.78;67.94;100764.66;5080633;28;1947;-64
2021/01/08 05:38:13;;;;;;;;;;;;;;;17.78;68.01;100759.28;5083995;28;1703;-56
2021/01/08 05:40:41;;;;;;;;;;;;;;;17.75;68.18;100761.41;5084610;28;1628;-63
2021/01/08 05:43:07;;;;;;;;;;;;;;;17.74;67.82;100752.50;5084840;28;1608;-64
2021/01/08 05:45:33;;;;;;;;;;;;;;;17.75;68.70;100746.19;5078778;28;1425;-57
2021/01/08 05:47:59;;;;;;;;;;;;;;;17.73;67.76;100734.78;5083837;28;1631;-57
2021/01/08 05:50:26;;;;;;;;;;;;;;;17.74;68.51;100739.13;5080930;28;1537;-64
2021/01/08 05:53:02;;;;;;;;;;;;;;;17.75;68.19;100735.50;5086133;28;1695;-56
2021/01/08 05:55:27;;;;;;;;;;;;;;;17.74;68.77;100724.91;5062695;28;1882;-64
2021/01/08 05:57:53;;;;;;;;;;;;;;;17.74;67.81;100724.91;5084203;28;1660;-63
2021/01/08 06:00:19;;;;;;;;;;;;;;;17.74;67.56;100731.09;5084566;28;1659;-64
2021/01/08 06:02:47;;;;;;;;;;;;;;;17.74;68.64;100736.47;5083773;28;1821;-56
2021/01/08 06:05:13;;;;;;;;;;;;;;;17.74;67.83;100738.28;5080001;28;1732;-64
2021/01/08 06:07:41;;;;;;;;;;;;;;;17.73;68.27;100734.78;5086283;28;1827;-64
2021/01/08 06:10:09;;;;;;;;;;;;;;;17.72;68.28;100732.22;5078217;28;1679;-63
2021/01/08 06:12:37;;;;;;;;;;;;;;;17.68;67.99;100710.22;5085216;28;1721;-64
2021/01/08 06:15:04;;;;;;;;;;;;;;;17.67;68.48;100713.91;5081956;28;1974;-56
2021/01/08 06:17:30;;;;;;;;;;;;;;;17.67;68.01;100692.50;5072357;28;1585;-61
2021/01/08 06:20:02;;;;;;;;;;;;;;;17.69;68.31;100685.19;5083387;28;1737;-57
2021/01/08 06:22:34;;;;;;;;;;;;;;;17.69;68.56;100702.09;5085670;28;1651;-64
2021/01/08 06:25:00;;;;;;;;;;;;;;;17.66;67.44;100696.97;5080154;28;1758;-56
2021/01/08 06:27:30;;;;;;;;;;;;;;;17.67;67.82;100689.81;5087416;28;1588;-56
2021/01/08 06:29:59;;;;;;;;;;;;;;;17.66;67.88;100682.75;5083901;28;1800;-57
2021/01/08 06:32:27;;;;;;;;;;;;;;;17.66;68.22;100675.59;5085359;28;1465;-63
2021/01/08 06:34:54;;;;;;;;;;;;;;;17.67;67.29;100684.47;5086999;28;1947;-63
2021/01/08 06:37:22;;;;;;;;;;;;;;;17.64;67.91;100680.22;5089486;28;1714;-56
2021/01/08 06:39:48;;;;;;;;;;;;;;;17.65;68.00;100684.59;5088846;28;1628;-63
2021/01/08 06:42:26;;;;;;;;;;;;;;;17.67;67.53;100711.22;5088095;28;1600;-64
2021/01/08 06:44:53;;;;;;;;;;;;;;;17.65;67.94;100687.28;5076901;28;1600;-63
2021/01/08 06:47:21;;;;;;;;;;;;;;;17.62;67.95;100694.69;5090666;28;1659;-63
2021/01/08 06:49:50;;;;;;;;;;;;;;;17.64;67.87;100704.28;5079522;28;1710;-64
2021/01/08 06:52:16;;;;;;;;;;;;;;;17.59;67.30;100698.50;5079782;28;1821;-64
2021/01/08 06:54:42;;;;;;;;;;;;;;;17.63;67.52;100707.09;5084451;28;1647;-64
2021/01/08 06:57:16;;;;;;;;;;;;;;;17.65;68.15;100705.16;5088057;28;1953;-58
2021/01/08 06:59:44;;;;;;;;;;;;;;;17.69;68.22;100702.09;5078709;28;1342;-59
2021/01/08 07:02:11;;;;;;;;;;;;;;;17.83;68.24;100708.13;5084089;28;1663;-63
2021/01/08 07:04:40;;;;;;;;;;;;;;;14.83;68.20;100740.09;5088675;28;1950;-63
2021/01/08 07:07:06;;;;;;;;;;;;;;;13.05;65.50;100754.59;5079689;28;1627;-57
2021/01/08 07:09:34;;;;;;;;;;;;;;;13.10;66.70;100744.56;5085736;28;1703;-62
2021/01/08 07:12:00;;;;;;;;;;;;;;;12.67;65.16;100753.44;5077799;28;1690;-55
2021/01/08 07:14:25;;;;;;;;;;;;;;;12.17;66.73;100744.06;5084253;28;1651;-62
2021/01/08 07:16:52;;;;;;;;;;;;;;;12.47;63.46;100741.38;5087182;28;1979;-55
2021/01/08 07:19:18;;;;;;;;;;;;;;;11.95;65.56;100733.88;5086110;28;1730;-63
2021/01/08 07:21:47;;;;;;;;;;;;;;;11.96;65.21;100732.09;5079443;28;1831;-56
2021/01/08 07:24:12;;;;;;;;;;;;;;;12.68;65.08;100722.44;5079491;28;1535;-58
2021/01/08 07:26:38;;;;;;;;;;;;;;;14.78;66.21;100720.06;5078605;28;1725;-59
2021/01/08 07:29:05;;;;;;;;;;;;;;;15.79;63.34;100709.19;5086059;28;1750;-62
2021/01/08 07:31:31;;;;;;;;;;;;;;;16.54;61.61;100708.72;5076864;28;1366;-58
2021/01/08 07:33:58;;;;;;;;;;;;;;;16.67;60.84;100704.13;5082327;28;1496;-57
2021/01/08 07:36:25;;;;;;;;;;;;;;;16.84;61.17;100702.78;5077380;28;1893;-57
2021/01/08 07:38:50;;;;;;;;;;;;;;;16.96;59.81;100692.94;5078564;28;1659;-62
2021/01/08 07:41:34;;;;;;;;;;;;;;;17.06;60.31;100704.59;5083966;28;1425;-63
2021/01/08 07:44:00;;;;;;;;;;;;;;;17.11;61.20;100704.22;5084785;28;1684;-57
2021/01/08 07:46:26;;;;;;;;;;;;;;;17.18;61.40;100702.75;5084516;28;1691;-63
2021/01/08 07:48:52;;;;;;;;;;;;;;;17.18;61.56;100701.91;5076934;28;1731;-63
2021/01/08 07:51:18;;;;;;;;;;;;;;;17.20;62.45;100686.59;5079898;28;1671;-57
2021/01/08 07:53:47;;;;;;;;;;;;;;;17.25;62.80;100682.56;5082925;28;1294;-62
2021/01/08 07:56:15;;;;;;;;;;;;;;;17.39;61.35;100678.75;5081376;28;1898;-57
2021/01/08 07:58:42;;;;;;;;;;;;;;;17.58;61.89;100672.72;5082430;28;1667;-57
2021/01/08 08:01:08;;;;;;;;;;;;;;;17.77;61.65;100677.38;5085548;28;1468;-57
2021/01/08 08:03:34;;;;;;;;;;;;;;;17.93;60.92;100681.47;5079099;28;1195;-63
2021/01/08 08:06:00;;;;;;;;;;;;;;;18.17;61.77;100676.66;5081276;28;1781;-58
2021/01/08 08:08:25;;;;;;;;;;;;;;;18.47;60.52;100670.47;5078392;28;1668;-62
2021/01/08 08:10:51;;;;;;;;;;;;;;;18.66;60.91;100659.00;5078019;28;1428;-60
2021/01/08 08:13:25;;;;;;;;;;;;;;;18.87;60.58;100653.59;5075875;28;1807;-57
2021/01/08 08:15:50;;;;;;;;;;;;;;;19.04;59.98;100649.41;5087468;28;1973;-60
2021/01/08 08:18:16;;;;;;;;;;;;;;;19.24;59.57;100636.03;5083832;28;1593;-58
2021/01/08 08:20:41;;;;;;;;;;;;;;;19.68;58.45;100623.03;5064426;28;1458;-58
2021/01/08 08:23:14;;;;;;;;;;;;;;;19.71;58.64;100613.81;5067376;28;1294;-67
2021/01/08 08:25:39;;;;;;;;;;;;;;;19.84;58.23;100623.28;5075917;28;929;-67
2021/01/08 08:28:05;;;;;;;;;;;;;;;20.05;57.23;100624.94;5076066;28;928;-74
2021/01/08 08:30:30;;;;;;;;;;;;;;;20.17;57.66;100629.13;5075722;28;792;-67
2021/01/08 08:32:57;;;;;;;;;;;;;;;20.13;62.60;100616.16;5088133;28;1747;-58
2021/01/08 08:35:22;;;;;;;;;;;;;;;20.36;57.83;100600.53;5086967;28;1893;-60
2021/01/08 08:37:52;;;;;;;;;;;;;;;20.67;57.32;100622.56;5085185;28;1773;-60
2021/01/08 08:40:20;;;;;;;;;;;;;;;20.75;57.24;100608.38;5084513;28;1833;-59
2021/01/08 08:42:49;;;;;;;;;;;;;;;20.80;57.13;100630.28;5082270;28;1651;-60
2021/01/08 08:45:19;;;;;;;;;;;;;;;20.75;58.10;100617.31;5090450;28;1628;-60
2021/01/08 08:47:48;;;;;;;;;;;;;;;20.58;58.81;100605.50;5087829;28;1703;-60
2021/01/08 08:50:14;;;;;;;;;;;;;;;20.39;58.89;100595.72;5071458;28;1628;-60
2021/01/08 08:52:40;;;;;;;;;;;;;;;20.08;59.86;100605.84;5079159;28;1421;-62
2021/01/08 08:55:05;;;;;;;;;;;;;;;19.91;60.63;100593.19;5076736;28;1943;-62
2021/01/08 08:57:31;;;;;;;;;;;;;;;19.79;60.29;100592.50;5075094;28;1754;-61
2021/01/08 08:59:57;;;;;;;;;;;;;;;19.80;61.03;100587.00;5083122;28;1770;-63
2021/01/08 09:02:25;;;;;;;;;;;;;;;19.71;61.22;100573.59;5081638;28;1686;-60
2021/01/08 09:04:52;;;;;;;;;;;;;;;19.63;61.30;100563.56;5086868;28;1624;-62
2021/01/08 09:07:40;;;;;;;;;;;;;;;19.56;61.44;100562.47;5069547;28;1558;-74
2021/01/08 09:10:13;;;;;;;;;;;;;;;19.45;61.77;100547.38;5074269;28;1653;-68
2021/01/08 09:12:43;;;;;;;;;;;;;;;19.36;62.06;100553.59;5081423;28;1512;-63
2021/01/08 09:15:16;;;;;;;;;;;;;;;19.31;62.01;100540.63;5083705;28;1906;-64
2021/01/08 09:17:43;;;;;;;;;;;;;;;19.28;61.98;100536.41;5069718;28;1547;-64
2021/01/08 09:20:13;;;;;;;;;;;;;;;19.25;62.13;100523.25;5073375;28;1636;-60
2021/01/08 09:22:38;;;;;;;;;;;;;;;19.14;61.98;100514.53;5073034;28;1593;-64
2021/01/08 09:25:04;;;;;;;;;;;;;;;19.16;63.08;100517.91;5078811;28;1505;-59
2021/01/08 09:27:29;;;;;;;;;;;;;;;19.08;63.79;100507.94;5086815;28;1703;-59
2021/01/08 09:30:05;;;;;;;;;;;;;;;19.03;64.45;100499.47;5089852;28;1770;-60
2021/01/08 09:32:31;;;;;;;;;;;;;;;19.00;65.16;100473.78;5073132;28;1405;-60
2021/01/08 09:35:00;;;;;;;;;;;;;;;19.00;65.47;100473.78;5078628;28;1432;-64
2021/01/08 09:37:28;;;;;;;;;;;;;;;19.00;66.08;100478.28;5087749;28;1702;-63
2021/01/08 09:39:54;;;;;;;;;;;;;;;19.05;66.86;100460.78;5080086;28;1809;-60
2021/01/08 09:42:20;;;;;;;;;;;;;;;19.02;66.46;100469.13;5061184;28;1770;-59
2021/01/08 09:44:45;;;;;;;;;;;;;;;19.07;66.26;100469.53;5083846;28;1769;-60
2021/01/08 09:47:15;;;;;;;;;;;;;;;19.04;66.38;100477.03;5076515;28;1607;-60
2021/01/08 09:49:40;;;;;;;;;;;;;;;19.16;65.81;100462.50;5078705;28;1766;-60
2021/01/08 09:52:07;;;;;;;;;;;;;;;19.36;66.01;100455.25;5082882;28;1659;-59
2021/01/08 09:54:42;;;;;;;;;;;;;;;20.02;64.42;100448.09;5065403;28;1778;-65
2021/01/08 09:57:08;;;;;;;;;;;;;;;20.79;62.61;100451.22;5078198;28;1969;-61
2021/01/08 09:59:33;;;;;;;;;;;;;;;21.20;61.64;100443.47;5079647;28;1466;-56
2021/01/08 10:02:09;;;;;;;;;;;;;;;21.21;62.23;100443.31;5080110;28;1492;-60
2021/01/08 10:04:35;;;;;;;;;;;;;;;21.16;63.36;100440.25;5082124;28;1346;-67
2021/01/08 10:07:04;;;;;;;;;;;;;;;20.94;63.93;100432.72;5076664;28;1709;-57
2021/01/08 10:09:48;;;;;;;;;;;;;;;20.77;63.92;100415.59;5078270;28;1442;-62
2021/01/08 10:12:14;;;;;;;;;;;;;;;20.98;64.25;100410.72;5083359;28;1641;-57
2021/01/08 10:14:39;;;;;;;;;;;;;;;20.86;64.05;100426.25;5088513;28;1621;-66
2021/01/08 10:17:08;;;;;;;;;;;;;;;20.84;64.28;100405.94;5084877;28;1914;-61
2021/01/08 10:19:34;;;;;;;;;;;;;;;20.21;66.24;100407.69;5079700;28;1623;-60
2021/01/08 10:22:03;;;;;;;;;;;;;;;19.94;66.91;100399.69;5086021;28;1609;-60
2021/01/08 10:24:28;;;;;;;;;;;;;;;19.68;67.15;100405.72;5080589;28;1393;-61
2021/01/08 10:26:53;;;;;;;;;;;;;;;19.54;67.66;100422.31;5062693;28;1382;-60
2021/01/08 10:29:18;;;;;;;;;;;;;;;19.41;67.21;100412.72;5086687;28;1742;-59
2021/01/08 10:31:44;;;;;;;;;;;;;;;19.41;67.78;100418.09;5081129;28;1678;-73
2021/01/08 10:34:09;;;;;;;;;;;;;;;19.31;67.93;100401.19;5076911;28;1124;-70
2021/01/08 10:36:35;;;;;;;;;;;;;;;19.23;68.60;100409.13;5079586;28;1886;-61
2021/01/08 10:39:01;;;;;;;;;;;;;;;19.14;68.21;100393.91;5088034;28;1520;-62
2021/01/08 10:41:26;;;;;;;;;;;;;;;19.04;68.46;100404.69;5076604;28;1246;-61
2021/01/08 10:43:51;;;;;;;;;;;;;;;19.02;68.35;100398.59;5084584;28;1604;-58
2021/01/08 10:46:19;;;;;;;;;;;;;;;19.03;68.64;100401.13;5077975;28;1208;-59
2021/01/08 10:48:44;;;;;;;;;;;;;;;18.94;68.71;100394.00;5078170;28;1592;-61
2021/01/08 10:51:10;;;;;;;;;;;;;;;18.91;68.31;100382.72;5084953;28;1636;-61
2021/01/08 10:53:35;;;;;;;;;;;;;;;18.84;68.25;100369.03;5082983;28;1631;-61
2021/01/08 10:56:01;;;;;;;;;;;;;;;18.84;68.07;100366.34;5089265;28;1889;-59
2021/01/08 10:58:27;;;;;;;;;;;;;;;18.80;68.20;100378.34;5081300;28;1329;-61
2021/01/08 11:00:52;;;;;;;;;;;;;;;18.76;68.41;100374.22;5089764;28;1675;-60
2021/01/08 11:03:20;;;;;;;;;;;;;;;18.76;68.42;100379.59;5064626;28;1414;-60
2021/01/08 11:05:46;;;;;;;;;;;;;;;18.92;67.40;100398.66;5076631;28;1442;-65
2021/01/08 11:08:11;;;;;;;;;;;;;;;19.05;67.65;100379.56;5079633;28;1526;-65
2021/01/08 11:10:37;;;;;;;;;;;;;;;19.19;67.24;100378.25;5086232;28;1600;-60
2021/01/08 11:13:03;;;;;;;;;;;;;;;19.26;67.37;100358.75;5087960;28;1659;-60
2021/01/08 11:15:28;;;;;;;;;;;;;;;19.28;66.53;100346.06;5086867;28;1910;-58
2021/01/08 11:17:54;;;;;;;;;;;;;;;19.52;65.53;100349.16;5080140;28;1678;-58
2021/01/08 11:20:20;;;;;;;;;;;;;;;19.75;64.58;100329.03;5086079;28;1711;-62
2021/01/08 11:22:45;;;;;;;;;;;;;;;19.91;65.29;100341.78;5083535;28;1735;-56
2021/01/08 11:25:12;;;;;;;;;;;;;;;19.99;64.15;100352.59;5083601;28;1587;-56
2021/01/08 11:27:37;;;;;;;;;;;;;;;20.18;64.95;100340.88;5088833;28;1747;-60
2021/01/08 11:30:02;;;;;;;;;;;;;;;20.22;65.74;100344.94;5086445;28;1624;-65
2021/01/08 11:32:27;;;;;;;;;;;;;;;20.25;64.64;100335.72;5088980;28;1639;-70
2021/01/08 11:34:53;;;;;;;;;;;;;;;20.31;64.22;100328.91;5094169;28;1651;-59
2021/01/08 11:37:18;;;;;;;;;;;;;;;20.29;64.91;100336.25;5060595;28;1975;-68
2021/01/08 11:39:47;;;;;;;;;;;;;;;20.20;66.46;100328.13;5068472;28;1691;-69
2021/01/08 11:42:12;;;;;;;;;;;;;;;20.22;65.73;100326.16;5084335;28;1809;-58
2021/01/08 11:44:38;;;;;;;;;;;;;;;20.43;65.88;100322.28;5075930;28;1386;-56
2021/01/08 11:47:03;;;;;;;;;;;;;;;20.45;65.81;100325.66;5094204;28;817;-58
2021/01/08 11:49:28;;;;;;;;;;;;;;;20.35;65.30;100322.22;5081176;28;1433;-65
2021/01/08 11:51:56;;;;;;;;;;;;;;;20.07;66.14;100327.66;5078024;28;1700;-66
2021/01/08 11:54:21;;;;;;;;;;;;;;;20.17;66.06;100328.44;5084323;28;1370;-63
2021/01/08 11:56:47;;;;;;;;;;;;;;;20.28;65.90;100348.84;5082754;28;1885;-66
2021/01/08 11:59:12;;;;;;;;;;;;;;;20.27;66.01;100334.59;5081910;28;1654;-67
2021/01/08 12:01:37;;;;;;;;;;;;;;;20.23;65.98;100335.91;5087921;28;1631;-57
2021/01/08 12:04:03;;;;;;;;;;;;;;;20.25;65.79;100336.59;5087565;28;1765;-66
2021/01/08 12:06:31;;;;;;;;;;;;;;;20.32;66.24;100342.16;5083206;28;1604;-60
2021/01/08 12:08:57;;;;;;;;;;;;;;;20.30;66.67;100340.66;5086055;28;1753;-66
2021/01/08 12:11:31;;;;;;;;;;;;;;;20.29;67.43;100350.53;5082098;28;1573;-58
2021/01/08 12:13:57;;;;;;;;;;;;;;;20.27;67.65;100345.34;5086718;28;1742;-58
2021/01/08 12:16:23;;;;;;;;;;;;;;;20.18;68.77;100321.25;5078804;28;1909;-58
2021/01/08 12:18:48;;;;;;;;;;;;;;;20.10;68.60;100321.19;5082919;28;1471;-59
2021/01/08 12:21:14;;;;;;;;;;;;;;;19.96;68.61;100317.19;5083736;28;1722;-58
2021/01/08 12:23:39;;;;;;;;;;;;;;;19.95;68.61;100319.00;5087579;28;1742;-59
2021/01/08 12:26:04;;;;;;;;;;;;;;;19.87;68.25;100321.59;5076848;28;1499;-61
2021/01/08 12:28:29;;;;;;;;;;;;;;;19.88;68.64;100327.84;5070348;28;1488;-57
2021/01/08 12:30:55;;;;;;;;;;;;;;;19.77;69.15;100315.47;5081378;28;1758;-59
2021/01/08 12:33:20;;;;;;;;;;;;;;;19.68;69.24;100335.97;5076749;28;1679;-59
2021/01/08 12:35:46;;;;;;;;;;;;;;;19.61;69.29;100324.16;5087107;28;1902;-58
2021/01/08 12:38:12;;;;;;;;;;;;;;;19.57;68.89;100314.72;5078685;28;1694;-59
2021/01/08 12:40:37;;;;;;;;;;;;;;;19.48;69.01;100333.41;5080827;28;1695;-58
2021/01/08 12:43:02;;;;;;;;;;;;;;;19.51;68.77;100347.50;5087837;28;1623;-60
2021/01/08 12:45:28;;;;;;;;;;;;;;;19.43;68.57;100334.84;5081126;28;1723;-59